Time;durP1;ratioP1;P1;durP2;ratioP2;P2;SDS_P1;SDS_P2;PMS_P1;PMS_P2;Temp;Humidity;BMP_temperature;BMP_pressure;BME280_temperature;BME280_humidity;BME280_pressure;Samples;Min_cycle;Max_cycle;Signal;HPM_P1;HPM_P2
2023/12/05 00:00:14;;;;;;;22.10;13.40;;;3.30;99.90;;;;;;5114359;28;20157;-47
2023/12/05 00:02:40;;;;;;;14.68;10.32;;;3.60;99.90;;;;;;5114576;28;20173;-50
2023/12/05 00:05:06;;;;;;;18.83;12.52;;;3.40;99.90;;;;;;5114224;28;20612;-50
2023/12/05 00:07:31;;;;;;;16.73;11.43;;;3.60;99.90;;;;;;5114169;28;20172;-48
2023/12/05 00:09:58;;;;;;;19.52;12.20;;;3.50;99.90;;;;;;5114170;28;20294;-49
2023/12/05 00:12:23;;;;;;;16.52;11.45;;;3.40;99.90;;;;;;5114814;28;20169;-50
2023/12/05 00:14:49;;;;;;;20.00;13.07;;;3.70;99.90;;;;;;5114102;28;20165;-51
2023/12/05 00:17:14;;;;;;;14.02;10.23;;;3.60;99.90;;;;;;5113384;28;20176;-49
2023/12/05 00:19:40;;;;;;;16.15;11.98;;;3.60;99.90;;;;;;5113935;28;20176;-48
2023/12/05 00:22:06;;;;;;;17.45;11.57;;;3.40;99.90;;;;;;5113982;28;20157;-51
2023/12/05 00:24:31;;;;;;;28.27;15.45;;;3.50;99.90;;;;;;5110229;28;20591;-47
2023/12/05 00:26:57;;;;;;;17.10;11.15;;;3.70;99.90;;;;;;5093413;28;20706;-47
2023/12/05 00:29:22;;;;;;;21.67;13.20;;;3.40;99.90;;;;;;5093832;28;20173;-47
2023/12/05 00:31:48;;;;;;;18.17;11.57;;;3.70;99.90;;;;;;5093318;28;20161;-45
2023/12/05 00:34:13;;;;;;;19.90;10.48;;;3.60;99.90;;;;;;5093499;28;21193;-46
2023/12/05 00:36:39;;;;;;;20.35;11.43;;;3.70;99.90;;;;;;5093362;28;20528;-46
2023/12/05 00:39:04;;;;;;;14.93;10.50;;;3.50;99.90;;;;;;5093226;28;20211;-50
2023/12/05 00:41:30;;;;;;;12.52;9.98;;;3.60;99.90;;;;;;5093213;28;20535;-48
2023/12/05 00:43:55;;;;;;;15.43;10.73;;;3.70;99.90;;;;;;5093243;28;20620;-52
2023/12/05 00:46:22;;;;;;;15.18;10.48;;;3.80;99.90;;;;;;5093591;28;20161;-48
2023/12/05 00:48:48;;;;;;;16.70;10.60;;;3.80;99.90;;;;;;5093266;28;20168;-48
2023/12/05 00:51:13;;;;;;;16.15;10.55;;;3.60;99.90;;;;;;5092814;28;20205;-48
2023/12/05 00:53:39;;;;;;;14.18;10.63;;;3.60;99.90;;;;;;5092971;28;20161;-49
2023/12/05 00:56:14;;;;;;;15.13;10.13;;;3.50;99.90;;;;;;5093202;28;20264;-51
2023/12/05 00:58:40;;;;;;;12.93;10.45;;;3.60;99.90;;;;;;5092839;28;20177;-52
2023/12/05 01:01:07;;;;;;;14.65;10.43;;;3.90;99.90;;;;;;5092818;28;20171;-48
2023/12/05 01:03:32;;;;;;;14.07;10.15;;;3.70;99.90;;;;;;5092790;28;20173;-46
2023/12/05 01:05:58;;;;;;;15.65;10.35;;;3.80;99.90;;;;;;5107093;28;20215;-49
2023/12/05 01:08:23;;;;;;;15.85;9.85;;;3.50;99.90;;;;;;5113548;28;20161;-48
2023/12/05 01:10:49;;;;;;;13.45;10.05;;;3.80;99.90;;;;;;5112627;28;20671;-46
2023/12/05 01:13:14;;;;;;;14.27;10.40;;;3.90;99.90;;;;;;5113300;28;20165;-49
2023/12/05 01:15:40;;;;;;;14.38;10.23;;;3.90;99.90;;;;;;5112890;28;20504;-50
2023/12/05 01:18:05;;;;;;;12.95;9.65;;;3.70;99.90;;;;;;5113196;28;20571;-49
2023/12/05 01:20:31;;;;;;;15.52;10.45;;;3.90;99.90;;;;;;5112820;28;20176;-49
2023/12/05 01:22:57;;;;;;;14.00;10.10;;;3.70;99.90;;;;;;5112802;28;20202;-50
2023/12/05 01:25:22;;;;;;;14.43;10.35;;;3.90;99.90;;;;;;5102748;28;20213;-50
2023/12/05 01:27:48;;;;;;;14.57;10.55;;;3.60;99.90;;;;;;5092288;28;20168;-49
2023/12/05 01:30:14;;;;;;;14.18;9.82;;;3.70;99.90;;;;;;5092137;28;20184;-52
2023/12/05 01:32:39;;;;;;;15.52;10.30;;;3.90;99.90;;;;;;5092254;28;20171;-53
2023/12/05 01:35:05;;;;;;;12.48;9.68;;;4.00;99.90;;;;;;5092091;28;20208;-50
2023/12/05 01:37:31;;;;;;;15.50;10.07;;;3.70;99.90;;;;;;5092475;28;20204;-48
2023/12/05 01:39:56;;;;;;;16.92;10.50;;;3.70;99.90;;;;;;5092142;28;20555;-47
2023/12/05 01:42:22;;;;;;;16.27;8.40;;;4.00;99.90;;;;;;5092556;28;20166;-56
2023/12/05 01:44:47;;;;;;;15.30;10.88;;;4.00;99.90;;;;;;5091961;28;20212;-51
2023/12/05 01:47:16;;;;;;;13.90;10.50;;;3.70;99.90;;;;;;5091953;28;20165;-57
2023/12/05 01:49:42;;;;;;;12.73;10.07;;;4.00;99.90;;;;;;5092207;28;20173;-56
2023/12/05 01:52:08;;;;;;;13.30;9.48;;;4.00;99.90;;;;;;5091794;28;20287;-56
2023/12/05 01:54:34;;;;;;;17.05;11.23;;;4.00;99.90;;;;;;5094779;28;20620;-53
2023/12/05 01:57:01;;;;;;;15.90;11.60;;;4.00;99.90;;;;;;5112438;28;20193;-57
2023/12/05 01:59:27;;;;;;;14.85;10.57;;;4.00;99.90;;;;;;5112083;28;20179;-56
2023/12/05 02:01:54;;;;;;;14.30;10.70;;;3.90;99.90;;;;;;5112804;28;20164;-57
2023/12/05 02:04:19;;;;;;;13.85;10.48;;;3.80;99.90;;;;;;5112698;28;20192;-56
2023/12/05 02:06:47;;;;;;;13.98;10.73;;;4.00;99.90;;;;;;5112044;28;20172;-56
2023/12/05 02:09:14;;;;;;;13.50;9.90;;;4.00;99.90;;;;;;5112056;28;20157;-54
2023/12/05 02:11:43;;;;;;;12.90;10.25;;;4.10;99.90;;;;;;5112219;28;20222;-54
2023/12/05 02:14:10;;;;;;;15.90;10.40;;;4.10;99.90;;;;;;5112239;28;20175;-55
2023/12/05 02:16:40;;;;;;;13.07;9.85;;;4.10;99.90;;;;;;5111936;28;20169;-56
2023/12/05 02:19:44;;;;;;;16.42;10.98;;;4.00;99.90;;;;;;5112076;28;20528;-52
2023/12/05 02:22:28;;;;;;;14.57;10.35;;;4.00;99.90;;;;;;5111814;28;20168;-49
2023/12/05 02:25:37;;;;;;;16.00;10.65;;;3.90;99.90;;;;;;5103625;28;20219;-48
2023/12/05 02:28:03;;;;;;;13.20;9.85;;;4.20;99.90;;;;;;5108988;28;20650;-52
2023/12/05 02:30:29;;;;;;;15.40;11.52;;;3.90;99.90;;;;;;5111858;28;20176;-50
2023/12/05 02:32:55;;;;;;;12.35;9.88;;;3.90;99.90;;;;;;5111908;28;20161;-53
2023/12/05 02:35:20;;;;;;;14.60;10.50;;;4.00;99.90;;;;;;5110436;28;20218;-54
2023/12/05 02:37:58;;;;;;;14.15;9.98;;;4.20;99.90;;;;;;5111772;28;20180;-50
2023/12/05 02:41:00;;;;;;;11.88;9.50;;;4.10;99.90;;;;;;5111935;28;20192;-46
2023/12/05 02:43:37;;;;;;;15.25;10.32;;;4.10;99.90;;;;;;5115913;28;20190;-54
2023/12/05 02:46:07;;;;;;;11.82;9.43;;;4.00;99.90;;;;;;5115699;28;20200;-50
2023/12/05 02:48:34;;;;;;;14.43;10.90;;;3.90;99.90;;;;;;5115791;28;20171;-54
2023/12/05 02:51:00;;;;;;;13.07;10.13;;;4.10;99.90;;;;;;5115641;28;20168;-54
2023/12/05 02:53:25;;;;;;;14.85;10.65;;;4.20;99.90;;;;;;5115660;28;20169;-49
2023/12/05 02:55:51;;;;;;;13.25;10.13;;;4.20;99.90;;;;;;5116108;28;20176;-49
2023/12/05 02:58:17;;;;;;;14.55;10.52;;;4.10;99.90;;;;;;5096022;28;20223;-49
2023/12/05 03:00:42;;;;;;;12.80;9.60;;;4.00;99.90;;;;;;5095099;28;20169;-50
2023/12/05 03:03:08;;;;;;;14.27;9.65;;;4.00;99.90;;;;;;5095112;28;20177;-52
2023/12/05 03:05:33;;;;;;;13.57;9.98;;;4.00;99.90;;;;;;5094926;28;20212;-52
2023/12/05 03:07:59;;;;;;;13.27;10.55;;;4.20;99.90;;;;;;5095111;28;20161;-54
2023/12/05 03:10:24;;;;;;;16.65;10.50;;;4.00;99.90;;;;;;5095145;28;20169;-50
2023/12/05 03:12:50;;;;;;;15.52;11.15;;;4.30;99.90;;;;;;5095624;28;20516;-48
2023/12/05 03:15:16;;;;;;;13.80;10.65;;;4.00;99.90;;;;;;5094857;28;20637;-53
2023/12/05 03:17:41;;;;;;;15.77;10.63;;;4.00;99.90;;;;;;5094828;28;20236;-48
2023/12/05 03:20:07;;;;;;;14.05;10.45;;;4.20;99.90;;;;;;5094771;28;20177;-49
2023/12/05 03:22:33;;;;;;;14.68;10.68;;;4.30;99.90;;;;;;5094738;28;20172;-51
2023/12/05 03:24:58;;;;;;;12.40;9.52;;;4.40;99.90;;;;;;5094608;28;20660;-49
2023/12/05 03:27:24;;;;;;;15.20;11.18;;;4.30;99.90;;;;;;5094908;28;20200;-45
2023/12/05 03:29:49;;;;;;;14.85;10.88;;;4.10;99.90;;;;;;5094975;28;20177;-46
2023/12/05 03:32:15;;;;;;;14.25;10.57;;;4.40;99.90;;;;;;5094506;28;20161;-52
2023/12/05 03:34:41;;;;;;;13.80;10.57;;;4.20;99.90;;;;;;5094754;28;20173;-46
2023/12/05 03:37:06;;;;;;;12.75;9.32;;;4.10;99.90;;;;;;5094414;28;20235;-48
2023/12/05 03:39:32;;;;;;;16.67;11.27;;;4.20;99.90;;;;;;5094352;28;20200;-48
2023/12/05 03:41:57;;;;;;;15.55;11.05;;;4.20;99.90;;;;;;5094318;28;20172;-52
2023/12/05 03:44:23;;;;;;;14.70;10.55;;;4.50;99.90;;;;;;5094719;28;20197;-46
2023/12/05 03:46:48;;;;;;;14.68;10.88;;;4.30;99.90;;;;;;5094225;28;20550;-46
2023/12/05 03:49:14;;;;;;;17.00;10.77;;;4.30;99.90;;;;;;5094220;28;20165;-47
2023/12/05 03:51:39;;;;;;;15.10;10.57;;;4.10;99.90;;;;;;5093789;28;20209;-48
2023/12/05 03:54:05;;;;;;;14.15;10.45;;;4.30;99.90;;;;;;5093063;28;20218;-51
2023/12/05 03:56:30;;;;;;;13.93;10.85;;;4.40;99.90;;;;;;5098242;28;20208;-48
2023/12/05 03:58:56;;;;;;;14.68;10.10;;;4.50;99.90;;;;;;5113566;28;20180;-48
2023/12/05 04:01:22;;;;;;;13.60;10.15;;;4.20;99.90;;;;;;5114874;28;20623;-50
2023/12/05 04:03:47;;;;;;;15.02;11.32;;;4.50;99.90;;;;;;5114282;28;20161;-46
2023/12/05 04:06:20;;;;;;;15.35;10.23;;;4.30;99.90;;;;;;5114262;28;20187;-50
2023/12/05 04:08:46;;;;;;;13.57;10.57;;;4.50;99.90;;;;;;5114252;28;20703;-48
2023/12/05 04:11:12;;;;;;;17.05;11.45;;;4.30;99.90;;;;;;5114169;28;20215;-50
2023/12/05 04:13:37;;;;;;;19.40;11.85;;;4.30;99.90;;;;;;5114118;28;20498;-46
2023/12/05 04:16:05;;;;;;;17.15;11.90;;;4.60;99.90;;;;;;5114093;28;20244;-47
2023/12/05 04:18:31;;;;;;;19.08;11.80;;;4.60;99.90;;;;;;5113979;28;20636;-46
2023/12/05 04:20:56;;;;;;;17.42;12.38;;;4.60;99.90;;;;;;5113988;28;20171;-48
2023/12/05 04:23:22;;;;;;;17.65;12.52;;;4.50;99.90;;;;;;5114357;28;20164;-46
2023/12/05 04:25:47;;;;;;;13.95;10.10;;;4.60;99.90;;;;;;5113391;28;20207;-49
2023/12/05 04:28:13;;;;;;;13.38;10.07;;;4.50;99.90;;;;;;5113813;28;20161;-53
2023/12/05 04:30:39;;;;;;;14.20;10.13;;;4.30;99.90;;;;;;5114061;28;20172;-48
2023/12/05 04:33:04;;;;;;;14.45;9.68;;;4.40;99.90;;;;;;5113798;28;20643;-50
2023/12/05 04:35:30;;;;;;;15.23;9.95;;;4.40;99.90;;;;;;5113410;28;20627;-49
2023/12/05 04:37:55;;;;;;;17.52;10.27;;;4.50;99.90;;;;;;5113721;28;20624;-45
2023/12/05 04:40:21;;;;;;;13.20;9.77;;;4.40;99.90;;;;;;5114061;28;20755;-45
2023/12/05 04:42:46;;;;;;;17.58;10.90;;;4.60;99.90;;;;;;5113580;28;20553;-51
2023/12/05 04:45:12;;;;;;;14.63;9.93;;;4.60;99.90;;;;;;5113479;28;20690;-50
2023/12/05 04:47:37;;;;;;;14.38;9.95;;;4.70;99.90;;;;;;5113751;28;20210;-57
2023/12/05 04:50:03;;;;;;;16.58;10.98;;;4.60;99.90;;;;;;5113641;28;20194;-56
2023/12/05 04:52:29;;;;;;;14.10;10.02;;;4.60;99.90;;;;;;5113291;28;20220;-55
2023/12/05 04:54:54;;;;;;;17.13;11.05;;;4.90;99.90;;;;;;5113561;28;20168;-53
2023/12/05 04:57:20;;;;;;;17.20;11.55;;;4.60;99.90;;;;;;5100166;28;20172;-55
2023/12/05 04:59:45;;;;;;;20.90;15.15;;;4.70;99.90;;;;;;5093073;28;20184;-54
2023/12/05 05:02:11;;;;;;;15.60;10.30;;;4.80;99.90;;;;;;5074520;28;20573;-56
2023/12/05 05:04:37;;;;;;;18.45;11.77;;;4.70;99.90;;;;;;5092287;28;20259;-57
2023/12/05 05:07:04;;;;;;;13.98;10.38;;;4.60;99.90;;;;;;5092760;28;20614;-47
2023/12/05 05:09:30;;;;;;;13.93;9.93;;;4.60;99.90;;;;;;5092549;28;20531;-56
2023/12/05 05:11:56;;;;;;;14.10;10.27;;;4.60;99.90;;;;;;5092705;28;20698;-54
2023/12/05 05:14:21;;;;;;;15.20;10.45;;;4.70;99.90;;;;;;5093041;28;20201;-51
2023/12/05 05:16:47;;;;;;;15.02;10.70;;;4.70;99.90;;;;;;5092548;28;20172;-55
2023/12/05 05:19:13;;;;;;;14.27;9.43;;;4.60;99.90;;;;;;5092507;28;20219;-54
2023/12/05 05:21:38;;;;;;;13.13;10.63;;;4.60;99.90;;;;;;5092405;28;20523;-54
2023/12/05 05:24:04;;;;;;;13.00;9.80;;;4.80;99.90;;;;;;5092297;28;20188;-57
2023/12/05 05:26:29;;;;;;;12.95;10.52;;;4.90;99.90;;;;;;5092502;28;20169;-48
2023/12/05 05:28:55;;;;;;;14.10;10.32;;;4.60;99.90;;;;;;5103906;28;20164;-49
2023/12/05 05:31:21;;;;;;;14.63;9.77;;;4.90;99.90;;;;;;5094412;28;20181;-53
2023/12/05 05:33:46;;;;;;;14.63;9.77;;;4.70;99.90;;;;;;5092138;28;20162;-52
2023/12/05 05:36:15;;;;;;;19.63;10.68;;;4.90;99.90;;;;;;5092180;28;20195;-54
2023/12/05 05:38:40;;;;;;;16.23;10.23;;;4.60;99.90;;;;;;5092098;28;20222;-53
2023/12/05 05:41:06;;;;;;;13.77;9.60;;;4.80;99.90;;;;;;5091938;28;20637;-50
2023/12/05 05:43:32;;;;;;;14.85;10.60;;;4.70;99.90;;;;;;5091762;28;20666;-51
2023/12/05 05:45:58;;;;;;;13.85;9.35;;;4.90;99.90;;;;;;5091851;28;20288;-51
2023/12/05 05:48:23;;;;;;;14.35;9.48;;;4.80;99.90;;;;;;5092034;28;20162;-45
2023/12/05 05:50:50;;;;;;;15.73;10.52;;;4.70;99.90;;;;;;5092444;28;20523;-54
2023/12/05 05:53:15;;;;;;;12.95;9.45;;;5.00;99.90;;;;;;5073421;28;20689;-47
2023/12/05 05:55:41;;;;;;;16.35;9.70;;;4.90;99.90;;;;;;5092051;28;20193;-53
2023/12/05 05:58:10;;;;;;;12.63;9.43;;;4.80;99.90;;;;;;5091250;28;20256;-49
2023/12/05 06:00:36;;;;;;;16.40;10.32;;;5.00;99.90;;;;;;5072997;28;20562;-54
2023/12/05 06:03:03;;;;;;;14.32;9.85;;;4.80;99.90;;;;;;5091194;28;20640;-48
2023/12/05 06:05:29;;;;;;;12.55;9.50;;;4.70;99.90;;;;;;5091013;28;20673;-52
2023/12/05 06:07:55;;;;;;;16.15;10.35;;;5.00;99.90;;;;;;5090977;28;20694;-49
2023/12/05 06:10:20;;;;;;;20.52;10.60;;;4.70;99.90;;;;;;5091324;28;20177;-50
2023/12/05 06:12:46;;;;;;;22.10;11.60;;;5.00;99.90;;;;;;5090979;28;20169;-52
2023/12/05 06:15:11;;;;;;;18.15;10.05;;;4.80;99.90;;;;;;5090425;28;20818;-51
2023/12/05 06:17:37;;;;;;;15.38;10.40;;;4.70;99.90;;;;;;5090694;28;20171;-48
2023/12/05 06:20:05;;;;;;;14.88;10.85;;;5.00;99.90;;;;;;5090968;28;20643;-50
2023/12/05 06:22:30;;;;;;;16.73;9.95;;;4.80;99.90;;;;;;5090945;28;20535;-48
2023/12/05 06:24:56;;;;;;;13.65;10.38;;;5.10;99.90;;;;;;5090790;28;20272;-48
2023/12/05 06:27:22;;;;;;;20.48;11.88;;;5.00;99.90;;;;;;5091679;28;20181;-46
2023/12/05 06:29:47;;;;;;;20.95;12.30;;;4.90;99.90;;;;;;5091152;28;20169;-54
2023/12/05 06:32:13;;;;;;;16.08;11.40;;;5.00;99.90;;;;;;5090867;28;20225;-46
2023/12/05 06:34:38;;;;;;;16.95;10.27;;;4.80;99.90;;;;;;5091079;28;20176;-56
2023/12/05 06:37:04;;;;;;;15.35;10.63;;;5.00;99.90;;;;;;5091040;28;20173;-46
2023/12/05 06:39:29;;;;;;;12.82;9.80;;;4.90;99.90;;;;;;5090914;28;20162;-46
2023/12/05 06:41:55;;;;;;;17.00;10.93;;;5.10;99.90;;;;;;5090661;28;20613;-55
2023/12/05 06:44:21;;;;;;;14.18;9.18;;;4.90;99.90;;;;;;5072941;28;20225;-55
2023/12/05 06:46:46;;;;;;;16.92;10.60;;;5.20;99.90;;;;;;5090624;28;20162;-47
2023/12/05 06:49:12;;;;;;;12.32;8.75;;;5.20;99.90;;;;;;5090617;28;20169;-50
2023/12/05 06:51:38;;;;;;;15.02;9.95;;;4.90;99.90;;;;;;5090593;28;20217;-52
2023/12/05 06:54:04;;;;;;;15.65;8.82;;;5.30;99.90;;;;;;5090631;28;20162;-49
2023/12/05 06:56:30;;;;;;;11.45;8.65;;;5.00;99.90;;;;;;5101019;28;20206;-56
2023/12/05 06:58:56;;;;;;;13.07;9.27;;;5.00;99.90;;;;;;5110562;28;20226;-53
2023/12/05 07:01:21;;;;;;;13.70;8.27;;;5.20;99.90;;;;;;5111585;28;20165;-56
2023/12/05 07:03:47;;;;;;;11.55;8.30;;;5.00;99.90;;;;;;5092743;28;20165;-50
2023/12/05 07:06:13;;;;;;;16.23;8.80;;;5.30;99.90;;;;;;5110624;28;20222;-45
2023/12/05 07:08:39;;;;;;;12.43;8.02;;;5.10;99.90;;;;;;5111161;28;20165;-46
2023/12/05 07:11:05;;;;;;;13.18;8.18;;;5.10;99.90;;;;;;5110744;28;20192;-56
2023/12/05 07:13:30;;;;;;;14.38;8.77;;;5.10;99.90;;;;;;5110998;28;20581;-47
2023/12/05 07:15:56;;;;;;;11.73;7.72;;;5.10;99.90;;;;;;5110775;28;20225;-45
2023/12/05 07:18:22;;;;;;;13.60;7.38;;;5.40;99.90;;;;;;5111310;28;20172;-49
2023/12/05 07:20:48;;;;;;;9.15;5.13;;;5.50;99.90;;;;;;5110932;28;20260;-46
2023/12/05 07:23:13;;;;;;;6.30;4.55;;;5.50;99.90;;;;;;5110834;28;20157;-49
2023/12/05 07:25:39;;;;;;;10.20;6.00;;;5.60;99.90;;;;;;5107471;28;20197;-46
2023/12/05 07:28:04;;;;;;;11.45;5.78;;;5.50;99.90;;;;;;5100580;28;20173;-48
2023/12/05 07:30:31;;;;;;;5.82;4.32;;;5.70;99.90;;;;;;5114423;28;20173;-45
2023/12/05 07:32:56;;;;;;;6.97;4.22;;;5.80;99.90;;;;;;5114738;28;20172;-51
2023/12/05 07:35:22;;;;;;;11.10;5.07;;;5.60;99.90;;;;;;5114707;28;20651;-50
2023/12/05 07:37:49;;;;;;;11.57;3.92;;;5.60;99.90;;;;;;5114371;28;20163;-51
2023/12/05 07:40:15;;;;;;;9.13;4.45;;;5.70;99.90;;;;;;5114349;28;20196;-50
2023/12/05 07:42:40;;;;;;;5.70;3.03;;;5.80;99.90;;;;;;5114289;28;20192;-46
2023/12/05 07:45:07;;;;;;;3.92;2.83;;;6.10;99.90;;;;;;5114345;28;20244;-47
2023/12/05 07:47:33;;;;;;;4.60;2.65;;;6.10;99.90;;;;;;5113946;28;20221;-53
2023/12/05 07:49:59;;;;;;;3.63;2.67;;;5.90;99.90;;;;;;5114030;28;20196;-56
2023/12/05 07:52:25;;;;;;;3.38;2.50;;;5.80;99.90;;;;;;5113785;28;20252;-52
2023/12/05 07:54:50;;;;;;;4.85;2.97;;;5.90;99.90;;;;;;5114690;28;20168;-54
2023/12/05 07:57:21;;;;;;;6.57;4.22;;;6.00;99.90;;;;;;5113522;28;20640;-49
2023/12/05 07:59:48;;;;;;;8.68;4.03;;;5.90;99.90;;;;;;5114229;28;20252;-48
2023/12/05 08:02:13;;;;;;;15.00;6.57;;;5.80;99.90;;;;;;5113888;28;20157;-46
2023/12/05 08:04:39;;;;;;;11.20;4.40;;;6.00;99.90;;;;;;5113898;28;20195;-46
2023/12/05 08:07:05;;;;;;;23.02;7.68;;;5.80;99.90;;;;;;5113680;28;20169;-47
2023/12/05 08:09:30;;;;;;;13.85;5.90;;;6.10;99.90;;;;;;5113883;28;20180;-47
2023/12/05 08:11:56;;;;;;;42.72;12.18;;;6.00;99.90;;;;;;5113711;28;20575;-49
2023/12/05 08:14:21;;;;;;;7.63;5.10;;;5.80;99.90;;;;;;5114094;28;20675;-47
2023/12/05 08:16:47;;;;;;;23.92;7.60;;;6.00;99.90;;;;;;5113631;28;20225;-46
2023/12/05 08:19:13;;;;;;;41.38;11.68;;;5.90;99.90;;;;;;5113521;28;20327;-45
2023/12/05 08:21:38;;;;;;;23.08;8.27;;;6.20;99.90;;;;;;5113576;28;20248;-47
2023/12/05 08:24:04;;;;;;;21.67;7.60;;;5.90;99.90;;;;;;5113428;28;20172;-50
2023/12/05 08:26:31;;;;;;;5.50;3.45;;;6.20;99.90;;;;;;5100864;28;20263;-48
2023/12/05 08:28:58;;;;;;;3.47;2.55;;;6.00;99.90;;;;;;5109484;28;20651;-49
2023/12/05 08:31:24;;;;;;;16.65;7.75;;;6.30;99.90;;;;;;5113444;28;20301;-48
2023/12/05 08:33:49;;;;;;;8.90;4.22;;;6.10;99.90;;;;;;5113951;28;20196;-47
2023/12/05 08:36:15;;;;;;;8.90;4.85;;;6.30;99.90;;;;;;5113271;28;20253;-46
2023/12/05 08:38:41;;;;;;;10.25;5.15;;;6.40;99.90;;;;;;5112395;28;20165;-46
2023/12/05 08:41:06;;;;;;;7.82;3.67;;;6.30;99.90;;;;;;5113148;28;20161;-47
2023/12/05 08:43:32;;;;;;;4.78;3.42;;;6.50;99.90;;;;;;5112965;28;20164;-46
2023/12/05 08:45:58;;;;;;;17.55;6.05;;;6.50;99.90;;;;;;5113002;28;20239;-50
2023/12/05 08:48:24;;;;;;;45.17;17.77;;;6.30;99.90;;;;;;5112953;28;20638;-46
2023/12/05 08:50:49;;;;;;;37.60;16.88;;;6.40;99.90;;;;;;5113372;28;20285;-46
2023/12/05 08:53:15;;;;;;;35.28;14.75;;;6.50;99.90;;;;;;5112644;28;20718;-46
2023/12/05 08:55:42;;;;;;;12.00;6.10;;;6.20;99.90;;;;;;5107358;28;20169;-48
2023/12/05 08:58:08;;;;;;;69.57;24.35;;;6.30;99.90;;;;;;5092179;28;20181;-47
2023/12/05 09:00:34;;;;;;;46.13;16.20;;;6.30;99.90;;;;;;5092320;28;20595;-47
2023/12/05 09:03:00;;;;;;;24.77;8.57;;;6.30;99.90;;;;;;5092292;28;20154;-50
2023/12/05 09:05:25;;;;;;;6.10;3.90;;;6.50;99.90;;;;;;5092358;28;20197;-50
2023/12/05 09:07:51;;;;;;;20.52;8.52;;;6.60;99.90;;;;;;5092776;28;20173;-47
2023/12/05 09:10:17;;;;;;;15.95;7.15;;;6.40;99.90;;;;;;5092243;28;20215;-47
2023/12/05 09:12:42;;;;;;;18.27;8.15;;;6.60;99.90;;;;;;5092638;28;20173;-46
2023/12/05 09:15:08;;;;;;;13.05;5.93;;;6.50;99.90;;;;;;5092104;28;20214;-47
2023/12/05 09:17:34;;;;;;;6.32;4.03;;;6.50;99.90;;;;;;5092066;28;20211;-46
2023/12/05 09:20:00;;;;;;;8.25;5.60;;;6.50;99.90;;;;;;5092269;28;20218;-45
2023/12/05 09:22:26;;;;;;;6.55;4.03;;;6.80;99.90;;;;;;5092430;28;20259;-46
2023/12/05 09:24:51;;;;;;;1.75;1.13;;;6.60;99.90;;;;;;5092522;28;20557;-49
2023/12/05 09:27:17;;;;;;;3.60;1.58;;;6.70;99.90;;;;;;5091880;28;20157;-52
2023/12/05 09:29:42;;;;;;;1.25;1.15;;;6.70;99.90;;;;;;5091686;28;20322;-53
2023/12/05 09:32:08;;;;;;;1.30;1.17;;;6.90;99.90;;;;;;5091800;28;20185;-46
2023/12/05 09:34:33;;;;;;;1.08;1.05;;;6.80;99.90;;;;;;5103832;28;20173;-46
2023/12/05 09:36:59;;;;;;;1.67;1.20;;;6.90;99.90;;;;;;5112266;28;20265;-56
2023/12/05 09:39:24;;;;;;;1.35;1.13;;;7.00;99.90;;;;;;5112024;28;20716;-45
2023/12/05 09:41:53;;;;;;;2.42;1.00;;;6.80;99.90;;;;;;5112308;28;20428;-48
2023/12/05 09:44:21;;;;;;;1.60;1.13;;;7.00;99.90;;;;;;5112540;28;20222;-47
2023/12/05 09:46:51;;;;;;;5.45;1.50;;;7.00;99.90;;;;;;5112139;28;20177;-47
2023/12/05 09:49:18;;;;;;;1.63;1.10;;;7.00;99.90;;;;;;5093768;28;20656;-46
2023/12/05 09:51:45;;;;;;;3.88;1.38;;;6.90;99.90;;;;;;5110685;28;20216;-47
2023/12/05 09:54:13;;;;;;;1.70;1.20;;;7.00;99.90;;;;;;5111597;28;20243;-46
2023/12/05 09:56:39;;;;;;;2.65;1.33;;;7.00;99.90;;;;;;5095608;28;20216;-46
2023/12/05 09:59:05;;;;;;;2.95;1.30;;;6.90;99.90;;;;;;5073802;28;20580;-46
2023/12/05 10:01:34;;;;;;;3.92;1.20;;;6.90;99.90;;;;;;5091905;28;20193;-45
2023/12/05 10:04:01;;;;;;;1.90;1.20;;;6.80;99.90;;;;;;5092063;28;20165;-46
2023/12/05 10:06:29;;;;;;;1.30;1.13;;;6.90;99.90;;;;;;5091716;28;20204;-50
2023/12/05 10:08:56;;;;;;;2.20;1.60;;;6.90;99.90;;;;;;5091679;28;20219;-46
2023/12/05 10:11:24;;;;;;;2.20;1.55;;;7.10;99.90;;;;;;5092297;28;20190;-50
2023/12/05 10:13:50;;;;;;;1.85;1.38;;;8.20;99.90;;;;;;5092060;28;20168;-49
2023/12/05 10:16:17;;;;;;;1.60;1.27;;;7.20;99.90;;;;;;5091848;28;20175;-53
2023/12/05 10:18:44;;;;;;;0.98;0.90;;;6.90;99.90;;;;;;5091540;28;20165;-46
2023/12/05 10:21:10;;;;;;;1.58;1.10;;;7.00;99.90;;;;;;5091587;28;20171;-47
2023/12/05 10:23:36;;;;;;;2.00;1.00;;;7.10;99.90;;;;;;5091478;28;20169;-46
2023/12/05 10:26:02;;;;;;;1.50;0.88;;;7.00;99.90;;;;;;5103772;28;20208;-56
2023/12/05 10:28:27;;;;;;;3.22;1.15;;;7.10;99.90;;;;;;5111561;28;20168;-55
2023/12/05 10:30:53;;;;;;;1.40;1.20;;;7.20;99.90;;;;;;5111349;28;20221;-47
2023/12/05 10:33:21;;;;;;;2.85;1.23;;;7.20;99.90;;;;;;5112537;28;20203;-56
2023/12/05 10:35:46;;;;;;;1.55;1.20;;;7.30;99.90;;;;;;5111732;28;20176;-48
2023/12/05 10:38:14;;;;;;;2.97;1.40;;;7.10;99.90;;;;;;5111705;28;20214;-46
2023/12/05 10:40:52;;;;;;;2.28;1.10;;;7.40;99.90;;;;;;5111686;28;20164;-49
2023/12/05 10:43:19;;;;;;;1.27;1.10;;;7.40;99.90;;;;;;5111879;28;20531;-50
2023/12/05 10:45:44;;;;;;;3.03;1.23;;;7.20;99.90;;;;;;5111798;28;20207;-47
2023/12/05 10:48:12;;;;;;;2.95;1.75;;;7.20;99.90;;;;;;5111732;28;20644;-49
2023/12/05 10:50:40;;;;;;;0.82;0.82;;;7.30;99.90;;;;;;5111700;28;20591;-56
2023/12/05 10:53:06;;;;;;;1.10;1.02;;;7.50;99.90;;;;;;5111493;28;20208;-51
2023/12/05 10:55:33;;;;;;;3.60;2.22;;;7.30;99.90;;;;;;5103074;28;20173;-47
2023/12/05 10:58:00;;;;;;;0.80;0.80;;;7.50;99.90;;;;;;5091278;28;20174;-52
2023/12/05 11:00:28;;;;;;;1.55;1.20;;;7.50;99.90;;;;;;5091149;28;20170;-50
2023/12/05 11:02:55;;;;;;;1.42;1.05;;;7.50;99.90;;;;;;5093817;28;20173;-46
2023/12/05 11:05:21;;;;;;;6.55;3.13;;;7.50;99.90;;;;;;5095529;28;20197;-48
2023/12/05 11:07:47;;;;;;;2.40;1.13;;;7.40;99.90;;;;;;5095085;28;20633;-46
2023/12/05 11:10:13;;;;;;;6.88;3.80;;;7.30;99.90;;;;;;5095041;28;20180;-49
2023/12/05 11:12:40;;;;;;;6.53;4.47;;;7.40;99.90;;;;;;5076953;28;20170;-48
2023/12/05 11:15:08;;;;;;;1.95;1.50;;;7.50;99.90;;;;;;5095024;28;20180;-49
2023/12/05 11:17:38;;;;;;;2.47;1.73;;;7.40;99.90;;;;;;5095148;28;20161;-46
2023/12/05 11:20:10;;;;;;;3.55;2.08;;;7.40;99.90;;;;;;5094846;28;20629;-46
2023/12/05 11:23:09;;;;;;;2.85;1.30;;;7.40;99.90;;;;;;5094789;28;20235;-48
2023/12/05 11:25:55;;;;;;;4.28;2.40;;;7.60;99.90;;;;;;5094986;28;20576;-47
2023/12/05 11:28:24;;;;;;;2.05;1.40;;;7.50;99.90;;;;;;5095283;28;20535;-46
2023/12/05 11:31:25;;;;;;;3.47;1.60;;;7.40;99.90;;;;;;5095134;28;20193;-50
2023/12/05 11:34:17;;;;;;;2.22;1.48;;;7.40;99.90;;;;;;5095027;28;20173;-46
2023/12/05 11:36:51;;;;;;;1.48;0.98;;;7.40;99.90;;;;;;5094554;28;20636;-50
2023/12/05 11:39:17;;;;;;;1.92;1.10;;;7.40;99.90;;;;;;5094464;28;20517;-47
2023/12/05 11:42:07;;;;;;;2.05;1.60;;;7.40;99.90;;;;;;5094457;28;20165;-46
2023/12/05 11:44:40;;;;;;;3.05;2.10;;;7.50;99.90;;;;;;5094607;28;20215;-46
2023/12/05 11:47:27;;;;;;;4.28;1.83;;;7.60;99.90;;;;;;5076135;28;20169;-46
2023/12/05 11:49:55;;;;;;;3.72;2.20;;;7.60;99.90;;;;;;5094510;28;20526;-46
2023/12/05 11:52:23;;;;;;;7.18;2.95;;;7.50;99.90;;;;;;5094505;28;20224;-45
2023/12/05 11:54:50;;;;;;;5.43;2.63;;;7.50;99.90;;;;;;5098817;28;20168;-46
2023/12/05 11:57:19;;;;;;;3.50;2.53;;;7.60;99.90;;;;;;5114781;28;20169;-46
2023/12/05 11:59:47;;;;;;;5.72;2.40;;;7.50;99.90;;;;;;5114757;28;20171;-47
2023/12/05 12:02:16;;;;;;;4.38;3.67;;;7.70;99.90;;;;;;5114612;28;20161;-46
2023/12/05 12:04:44;;;;;;;7.28;4.07;;;7.70;99.90;;;;;;5097526;28;20743;-46
2023/12/05 12:07:09;;;;;;;7.38;4.30;;;7.60;99.90;;;;;;5114335;28;20613;-46
2023/12/05 12:09:40;;;;;;;4.10;3.03;;;7.70;99.90;;;;;;5095887;28;20168;-48
2023/12/05 12:12:07;;;;;;;7.85;4.35;;;7.50;99.90;;;;;;5114385;28;20179;-49
2023/12/05 12:14:33;;;;;;;9.45;5.97;;;7.70;99.90;;;;;;5113282;28;20504;-48
2023/12/05 12:17:04;;;;;;;6.10;3.17;;;7.50;99.90;;;;;;5096004;28;20173;-46
2023/12/05 12:19:30;;;;;;;9.30;5.15;;;7.50;99.90;;;;;;5114305;28;20176;-46
2023/12/05 12:21:56;;;;;;;7.75;4.15;;;7.70;99.90;;;;;;5113999;28;20581;-46
2023/12/05 12:24:23;;;;;;;8.27;4.80;;;7.50;99.90;;;;;;5113898;28;20644;-45
2023/12/05 12:26:55;;;;;;;7.25;4.13;;;7.60;99.90;;;;;;5093966;28;20214;-45
2023/12/05 12:29:23;;;;;;;5.55;3.47;;;7.60;99.90;;;;;;5093825;28;20729;-47
2023/12/05 12:31:52;;;;;;;5.75;3.80;;;7.60;99.90;;;;;;5093954;28;20234;-47
2023/12/05 12:34:26;;;;;;;5.68;4.32;;;7.40;99.90;;;;;;5093411;28;20647;-48
2023/12/05 12:36:52;;;;;;;5.57;3.95;;;7.50;99.90;;;;;;5094041;28;20178;-49
2023/12/05 12:39:19;;;;;;;7.53;4.40;;;7.60;99.90;;;;;;5093589;28;20169;-47
2023/12/05 12:41:48;;;;;;;6.68;2.45;;;7.70;99.90;;;;;;5093253;28;20656;-52
2023/12/05 12:44:16;;;;;;;2.10;1.67;;;7.40;99.90;;;;;;5093113;28;20215;-45